Time;durP1;ratioP1;P1;durP2;ratioP2;P2;SDS_P1;SDS_P2;PMS_P1;PMS_P2;Temp;Humidity;BMP_temperature;BMP_pressure;BME280_temperature;BME280_humidity;BME280_pressure;Samples;Min_cycle;Max_cycle;Signal;HPM_P1;HPM_P2
2022/11/29 00:00:44;;;;;;;;;5.33;5.33;;;;;11.90;66.46;100818.69;2095688;28;46206;-65
2022/11/29 00:01:45;;;;;;;;;6.00;6.00;;;;;11.91;66.66;100826.63;2097342;28;46211;-64
2022/11/29 00:02:45;;;;;;;;;7.00;6.33;;;;;11.91;66.45;100817.78;2095102;28;46199;-63
2022/11/29 00:03:47;;;;;;;;;5.00;5.00;;;;;11.91;66.54;100820.44;2092517;28;46452;-64
2022/11/29 00:04:47;;;;;;;;;5.75;4.75;;;;;11.92;66.63;100824.84;2094471;28;46691;-65
2022/11/29 00:05:47;;;;;;;;;5.00;5.00;;;;;11.92;66.71;100820.38;2097112;28;46200;-63
2022/11/29 00:06:48;;;;;;;;;7.00;6.00;;;;;11.93;66.72;100819.47;2090068;28;46714;-64
2022/11/29 00:07:48;;;;;;;;;6.00;6.00;;;;;11.95;66.61;100822.13;2097090;28;45961;-64
2022/11/29 00:08:48;;;;;;;;;7.50;7.50;;;;;11.94;66.41;100825.66;2092926;28;46414;-63
2022/11/29 00:09:49;;;;;;;;;6.00;5.33;;;;;11.93;66.51;100827.44;2096568;28;46826;-63
2022/11/29 00:10:49;;;;;;;;;8.00;7.33;;;;;11.94;66.56;100828.31;2094392;28;46755;-64
2022/11/29 00:13:08;;;;;;;;;3.50;3.50;;;;;11.92;66.53;100825.72;2096471;28;46674;-64
2022/11/29 00:14:14;;;;;;;;;7.00;6.00;;;;;11.93;66.53;100829.25;2096535;28;45563;-66
2022/11/29 00:15:14;;;;;;;;;4.50;4.25;;;;;11.94;66.79;100826.56;2086582;28;47003;-64
2022/11/29 00:16:14;;;;;;;;;6.00;5.00;;;;;11.94;66.64;100825.66;2086842;28;46627;-65
2022/11/29 00:17:15;;;;;;;;;7.33;7.00;;;;;11.94;66.46;100828.31;2096688;28;46703;-66
2022/11/29 00:18:15;;;;;;;;;5.33;5.33;;;;;11.94;66.68;100829.22;2095289;28;45422;-64
2022/11/29 00:19:15;;;;;;;;;4.67;4.67;;;;;11.94;66.58;100826.56;2097893;28;46688;-64
2022/11/29 00:20:16;;;;;;;;;4.67;3.00;;;;;11.94;66.46;100828.31;2095188;28;46734;-63
2022/11/29 00:21:16;;;;;;;;;6.33;5.33;;;;;11.93;66.35;100831.91;2095937;28;46560;-66
2022/11/29 00:22:16;;;;;;;;;6.33;6.00;;;;;11.89;66.56;100831.13;2094894;28;47750;-63
2022/11/29 00:23:17;;;;;;;;;5.00;5.00;;;;;11.86;66.65;100825.88;2095910;28;46564;-65
2022/11/29 00:24:17;;;;;;;;;4.67;4.00;;;;;11.82;66.49;100824.22;2095728;28;46614;-62
2022/11/29 00:25:18;;;;;;;;;7.00;7.00;;;;;11.80;66.59;100826.03;2096202;28;46353;-64
2022/11/29 00:26:18;;;;;;;;;5.00;5.00;;;;;11.80;66.57;100823.34;2095713;28;46247;-64
2022/11/29 00:27:18;;;;;;;;;6.33;6.33;;;;;11.78;66.72;100830.47;2096121;28;46600;-65
2022/11/29 00:28:19;;;;;;;;;5.00;5.00;;;;;11.76;66.88;100819.00;2095435;28;45857;-63
2022/11/29 00:29:19;;;;;;;;;4.00;4.00;;;;;11.74;66.38;100829.69;2096518;28;46365;-64
2022/11/29 00:30:20;;;;;;;;;8.00;6.00;;;;;11.71;66.65;100827.09;2093944;28;47237;-62
2022/11/29 00:31:23;;;;;;;;;7.00;6.00;;;;;11.68;66.74;100832.47;2093817;28;45910;-65
2022/11/29 00:32:23;;;;;;;;;6.00;4.75;;;;;11.68;66.94;100834.25;2095620;28;47199;-65
2022/11/29 00:33:23;;;;;;;;;4.67;4.67;;;;;11.68;66.77;100835.13;2096756;28;46613;-65
2022/11/29 00:34:24;;;;;;;;;7.00;6.00;;;;;11.67;66.89;100843.16;2095156;28;46134;-66
2022/11/29 00:35:24;;;;;;;;;4.00;3.00;;;;;11.65;66.95;100842.31;2096107;28;46795;-65
2022/11/29 00:36:25;;;;;;;;;4.67;4.67;;;;;11.64;67.02;100843.22;2094077;28;46538;-63
2022/11/29 00:37:26;;;;;;;;;4.75;4.75;;;;;11.62;67.10;100837.09;2091528;28;45800;-64
2022/11/29 00:38:26;;;;;;;;;6.00;5.67;;;;;11.62;67.17;100843.28;2084887;28;46536;-64
2022/11/29 00:39:27;;;;;;;;;5.00;5.00;;;;;11.60;67.21;100837.13;2086122;28;46541;-64
2022/11/29 00:40:27;;;;;;;;;6.00;5.33;;;;;11.60;67.31;100836.25;2094084;28;46440;-64
2022/11/29 00:41:27;;;;;;;;;5.33;4.67;;;;;11.59;67.13;100839.81;2096227;28;46654;-63
2022/11/29 00:42:27;;;;;;;;;7.33;6.33;;;;;11.59;67.16;100845.13;2095676;28;46202;-64
2022/11/29 00:43:28;;;;;;;;;7.00;7.00;;;;;11.57;67.09;100839.00;2096658;28;46495;-65
2022/11/29 00:44:28;;;;;;;;;7.67;7.33;;;;;11.57;67.42;100844.31;2095032;28;46263;-65
2022/11/29 00:45:28;;;;;;;;;5.33;5.33;;;;;11.56;67.18;100834.56;2095457;28;46684;-64
2022/11/29 00:46:29;;;;;;;;;6.00;6.00;;;;;11.57;67.19;100842.53;2094974;28;46281;-65
2022/11/29 00:47:29;;;;;;;;;5.33;5.33;;;;;11.57;67.43;100837.22;2096126;28;47670;-65
2022/11/29 00:48:30;;;;;;;;;4.00;4.00;;;;;11.58;67.34;100844.25;2093708;28;46553;-63
2022/11/29 00:49:30;;;;;;;;;7.33;7.00;;;;;11.59;67.08;100847.78;2095932;28;46833;-62
2022/11/29 00:50:30;;;;;;;;;6.00;6.00;;;;;11.59;67.22;100845.13;2094604;28;46772;-64
2022/11/29 00:51:31;;;;;;;;;5.33;5.33;;;;;11.57;67.17;100852.28;2096547;28;46212;-64
2022/11/29 00:52:31;;;;;;;;;4.67;4.33;;;;;11.56;67.23;100842.53;2095548;28;46922;-62
2022/11/29 00:53:33;;;;;;;;;4.00;4.00;;;;;11.56;67.50;100850.50;2096707;28;46649;-64
2022/11/29 00:54:34;;;;;;;;;4.75;4.75;;;;;11.54;67.47;100847.88;2094873;28;46144;-65
2022/11/29 00:55:34;;;;;;;;;7.00;6.00;;;;;11.53;67.46;100838.16;2093953;28;46272;-63
2022/11/29 00:56:34;;;;;;;;;4.33;4.33;;;;;11.55;67.45;100839.00;2095349;28;45862;-64
2022/11/29 00:57:34;;;;;;;;;6.00;5.00;;;;;11.55;67.49;100843.44;2096992;28;46175;-65
2022/11/29 00:58:35;;;;;;;;;7.00;4.33;;;;;11.55;67.68;100852.28;2090360;28;47991;-65
2022/11/29 00:59:36;;;;;;;;;6.00;6.00;;;;;11.55;67.38;100843.44;2096429;28;46279;-64
2022/11/29 01:00:36;;;;;;;;;5.00;5.00;;;;;11.56;67.44;100837.22;2094285;28;46775;-63
2022/11/29 01:01:36;;;;;;;;;7.00;6.00;;;;;11.57;67.51;100844.31;2091576;28;46774;-62
2022/11/29 01:02:37;;;;;;;;;7.00;5.67;;;;;11.59;67.59;100845.13;2097004;28;46167;-64
2022/11/29 01:03:37;;;;;;;;;5.33;4.67;;;;;11.60;67.71;100849.53;2096975;28;46484;-63
2022/11/29 01:04:37;;;;;;;;;7.00;7.00;;;;;11.59;67.46;100845.13;2094859;28;45755;-65
2022/11/29 01:05:39;;;;;;;;;6.00;6.00;;;;;11.60;67.74;100849.53;2096336;28;46149;-64
2022/11/29 01:06:39;;;;;;;;;7.00;6.00;;;;;11.59;67.64;100843.34;2094640;28;46546;-66
2022/11/29 01:07:39;;;;;;;;;5.00;5.00;;;;;11.59;67.46;100845.13;2095618;28;46863;-63
2022/11/29 01:08:40;;;;;;;;;6.33;6.00;;;;;11.59;67.47;100839.81;2093959;28;46658;-64
2022/11/29 01:09:41;;;;;;;;;4.50;4.50;;;;;11.58;67.59;100841.59;2096899;28;46946;-63
2022/11/29 01:10:41;;;;;;;;;5.00;5.00;;;;;11.58;67.76;100846.06;2092586;28;46241;-63
2022/11/29 01:11:41;;;;;;;;;5.67;5.00;;;;;11.57;67.56;100839.00;2097080;28;46138;-65
2022/11/29 01:12:42;;;;;;;;;6.33;4.00;;;;;11.58;67.49;100844.25;2094781;28;46313;-64
2022/11/29 01:13:43;;;;;;;;;5.33;5.33;;;;;11.57;67.47;100841.66;2097219;28;46062;-65
2022/11/29 01:14:43;;;;;;;;;8.00;7.00;;;;;11.55;67.46;100830.16;2094505;28;46408;-64
2022/11/29 01:15:43;;;;;;;;;7.00;7.00;;;;;11.55;67.38;100840.78;2096537;28;46832;-65
2022/11/29 01:16:43;;;;;;;;;7.33;7.33;;;;;11.54;67.43;100839.91;2094001;28;46565;-63
2022/11/29 01:17:45;;;;;;;;;8.33;7.00;;;;;11.53;67.49;100838.16;2096981;28;46196;-63
2022/11/29 01:18:46;;;;;;;;;5.75;5.75;;;;;11.53;67.76;100845.25;2094606;28;45861;-63
2022/11/29 01:19:46;;;;;;;;;7.33;7.33;;;;;11.53;67.78;100843.47;2096955;28;46500;-64
2022/11/29 01:20:55;;;;;;;;;6.67;6.33;;;;;11.52;67.59;100849.72;2094185;28;46641;-62
2022/11/29 01:21:55;;;;;;;;;6.75;6.75;;;;;11.52;67.47;100848.84;2097026;28;46630;-63
2022/11/29 01:22:56;;;;;;;;;4.33;4.33;;;;;11.51;67.63;100853.28;2094302;28;46666;-64
2022/11/29 01:23:56;;;;;;;;;6.00;6.00;;;;;11.52;67.67;100851.50;2097080;28;46386;-64
2022/11/29 01:24:56;;;;;;;;;4.00;4.00;;;;;11.52;67.71;100855.03;2094373;28;46822;-65
2022/11/29 01:25:59;;;;;;;;;6.00;6.00;;;;;11.53;67.74;100853.25;2095684;28;46922;-64
2022/11/29 01:27:00;;;;;;;;;5.25;5.25;;;;;11.54;67.93;100852.31;2095393;28;47185;-65
2022/11/29 01:28:00;;;;;;;;;7.00;7.00;;;;;11.54;67.81;100855.84;2096726;28;46585;-63
2022/11/29 01:29:00;;;;;;;;;7.67;7.67;;;;;11.55;67.95;100857.59;2093949;28;46395;-63
2022/11/29 01:30:01;;;;;;;;;7.67;7.67;;;;;11.54;67.87;100861.16;2095826;28;46158;-64
2022/11/29 01:31:07;;;;;;;;;7.00;7.00;;;;;11.55;67.84;100856.72;2094665;28;46163;-64
2022/11/29 01:32:07;;;;;;;;;6.75;6.75;;;;;11.55;67.96;100862.03;2095813;28;46326;-62
2022/11/29 01:33:07;;;;;;;;;5.67;5.67;;;;;11.56;67.81;100864.69;2094363;28;46318;-63
2022/11/29 01:34:09;;;;;;;;;6.00;5.00;;;;;11.57;67.76;100858.47;2095743;28;46436;-63
2022/11/29 01:35:10;;;;;;;;;6.25;6.25;;;;;11.59;67.91;100863.75;2095799;28;45706;-63
2022/11/29 01:36:12;;;;;;;;;6.33;6.33;;;;;11.59;67.73;100859.31;2094700;28;46287;-63
2022/11/29 01:37:12;;;;;;;;;5.75;5.75;;;;;11.61;67.76;100864.56;2095579;28;46705;-64
2022/11/29 01:38:13;;;;;;;;;5.33;5.33;;;;;11.61;67.63;100860.13;2095528;28;46815;-63
2022/11/29 01:39:13;;;;;;;;;6.00;5.00;;;;;11.60;67.73;100861.03;2094865;28;45180;-63
2022/11/29 01:40:13;;;;;;;;;6.00;5.00;;;;;11.61;67.71;100864.56;2093834;28;46289;-62
2022/11/29 01:41:21;;;;;;;;;5.00;4.00;;;;;11.61;67.65;100862.78;2095627;28;46270;-64
2022/11/29 01:42:21;;;;;;;;;6.75;6.75;;;;;11.62;67.73;100863.66;2094848;28;46844;-64
2022/11/29 01:43:22;;;;;;;;;7.67;6.67;;;;;11.62;67.75;100864.53;2095321;28;46866;-63
2022/11/29 01:44:43;;;;;;;;;5.00;5.00;;;;;11.63;67.78;100871.59;2097798;28;46864;-64
2022/11/29 01:45:43;;;;;;;;;6.00;6.00;;;;;11.64;67.50;100872.47;2085873;28;46700;-64
2022/11/29 01:46:47;;;;;;;;;7.33;6.00;;;;;11.63;67.54;100874.25;2085209;28;46573;-64
2022/11/29 01:47:51;;;;;;;;;5.00;5.00;;;;;11.62;67.50;100877.81;2087226;28;46639;-64
2022/11/29 01:48:56;;;;;;;;;5.00;5.00;;;;;11.60;67.66;100879.66;2084603;28;46863;-64
2022/11/29 01:49:57;;;;;;;;;6.50;6.50;;;;;11.62;67.66;100882.28;2087353;28;46161;-64
2022/11/29 01:51:00;;;;;;;;;4.75;4.75;;;;;11.63;67.78;100878.69;2076439;28;46471;-64
2022/11/29 01:52:10;;;;;;;;;5.50;4.75;;;;;11.64;67.65;100883.09;2078601;28;46929;-63
2022/11/29 01:53:12;;;;;;;;;7.00;5.75;;;;;11.64;67.76;100881.31;2086166;28;46734;-63
2022/11/29 01:54:13;;;;;;;;;5.50;5.25;;;;;11.67;67.81;100885.69;2085258;28;46335;-64
2022/11/29 01:55:14;;;;;;;;;2.00;2.00;;;;;11.67;68.14;100888.34;2085937;28;46460;-64
2022/11/29 01:56:15;;;;;;;;;4.67;4.33;;;;;11.68;67.64;100879.44;2085614;28;46282;-63
2022/11/29 01:57:17;;;;;;;;;5.67;5.67;;;;;11.70;67.86;100891.81;2078023;28;46871;-63
2022/11/29 01:58:19;;;;;;;;;5.75;5.75;;;;;11.72;67.87;100889.13;2077012;28;46545;-62
2022/11/29 01:59:23;;;;;;;;;6.75;5.00;;;;;11.73;67.77;100889.09;2086489;28;45884;-64
2022/11/29 02:00:24;;;;;;;;;6.50;5.50;;;;;11.76;67.80;100893.44;2085109;28;46784;-63
2022/11/29 02:01:24;;;;;;;;;6.33;6.33;;;;;11.77;67.68;100896.06;2086839;28;46479;-64
2022/11/29 02:02:46;;;;;;;;;6.00;6.00;;;;;11.79;67.55;100893.41;2085847;28;46903;-65
2022/11/29 02:03:46;;;;;;;;;5.00;5.00;;;;;11.81;67.65;100893.34;2081341;28;45651;-65
2022/11/29 02:04:47;;;;;;;;;7.00;7.00;;;;;11.83;67.73;100899.53;2084721;28;45950;-62
2022/11/29 02:05:50;;;;;;;;;5.25;4.25;;;;;11.84;67.63;100899.50;2087057;28;46662;-63
2022/11/29 02:06:50;;;;;;;;;5.75;5.75;;;;;11.86;67.66;100899.47;2084019;28;46702;-65
2022/11/29 02:07:54;;;;;;;;;5.00;4.67;;;;;11.87;67.54;100901.22;2084824;28;46126;-63
2022/11/29 02:08:55;;;;;;;;;5.75;5.75;;;;;11.88;67.55;100898.50;2085071;28;46264;-63
2022/11/29 02:09:55;;;;;;;;;6.00;5.00;;;;;11.89;67.49;100899.38;2086768;28;46120;-65
2022/11/29 02:11:22;;;;;;;;;4.00;4.00;;;;;11.90;67.41;100906.44;2084301;28;46385;-64
2022/11/29 02:12:37;;;;;;;;;8.25;6.00;;;;;11.90;67.63;100896.69;2084959;28;46500;-63
2022/11/29 02:13:55;;;;;;;;;5.50;5.50;;;;;11.92;67.55;100901.97;2086368;28;46436;-65
2022/11/29 02:15:16;;;;;;;;;7.00;7.00;;;;;11.93;67.25;100896.59;2085173;28;46419;-63
2022/11/29 02:16:28;;;;;;;;;6.25;6.25;;;;;11.95;67.43;100902.78;2080924;28;46435;-64
2022/11/29 02:17:33;;;;;;;;;2.75;1.75;;;;;11.94;67.48;100901.03;2086204;28;46740;-63
2022/11/29 02:19:01;;;;;;;;;4.00;4.00;;;;;11.95;67.28;100900.13;2085925;28;46825;-63
2022/11/29 02:20:20;;;;;;;;;5.25;5.00;;;;;11.96;67.27;100904.53;2086058;28;46474;-61
2022/11/29 02:21:29;;;;;;;;;4.50;3.25;;;;;11.96;67.24;100903.66;2085685;28;48482;-63
2022/11/29 02:22:41;;;;;;;;;6.50;5.25;;;;;11.97;67.20;100900.09;2085670;28;46525;-64
2022/11/29 02:24:01;;;;;;;;;5.75;5.75;;;;;11.96;67.13;100901.88;2092055;28;46376;-64
2022/11/29 02:25:34;;;;;;;;;7.00;5.25;;;;;11.95;67.05;100901.91;2095209;28;46441;-64
2022/11/29 02:27:02;;;;;;;;;6.75;5.25;;;;;11.96;67.19;100901.88;2094484;28;46541;-63
2022/11/29 02:28:16;;;;;;;;;5.00;4.00;;;;;11.96;67.11;100901.00;2093867;28;45730;-63
2022/11/29 02:29:26;;;;;;;;;7.25;5.50;;;;;11.95;67.24;100900.13;2094816;28;46720;-64
2022/11/29 02:31:06;;;;;;;;;4.25;4.25;;;;;11.96;67.12;100899.22;2093402;28;46584;-63
2022/11/29 02:32:44;;;;;;;;;5.75;4.00;;;;;11.97;67.14;100898.28;2084666;28;46365;-63
2022/11/29 02:34:15;;;;;;;;;5.75;5.25;;;;;11.97;67.15;100903.63;2087184;28;46973;-64
2022/11/29 02:35:52;;;;;;;;;6.25;6.00;;;;;11.99;67.19;100898.25;2084621;28;46874;-64
2022/11/29 02:37:17;;;;;;;;;5.50;5.50;;;;;11.98;67.19;100897.38;2085016;28;45323;-63
2022/11/29 02:38:55;;;;;;;;;5.00;5.00;;;;;11.99;67.21;100899.13;2084203;28;46621;-63
2022/11/29 02:40:32;;;;;;;;;4.00;4.00;;;;;12.00;67.07;100907.97;2081404;28;46254;-65
2022/11/29 02:41:50;;;;;;;;;7.75;7.75;;;;;11.99;67.16;100898.25;2086487;28;46610;-63
2022/11/29 02:43:17;;;;;;;;;6.00;5.00;;;;;12.00;67.08;100900.00;2085070;28;47082;-64
2022/11/29 02:44:39;;;;;;;;;5.25;5.25;;;;;11.99;67.01;100903.56;2085367;28;46513;-63
2022/11/29 02:45:54;;;;;;;;;6.25;6.25;;;;;11.97;67.15;100900.09;2086518;28;46509;-63
2022/11/29 02:47:06;;;;;;;;;5.25;5.25;;;;;11.97;67.14;100903.63;2085679;28;46263;-63
2022/11/29 02:48:29;;;;;;;;;4.75;4.75;;;;;11.97;67.25;100905.41;2084471;28;46700;-63
2022/11/29 02:49:44;;;;;;;;;7.25;4.75;;;;;11.97;67.12;100906.28;2086531;28;46450;-64
2022/11/29 02:50:56;;;;;;;;;6.75;6.75;;;;;11.98;67.07;100913.34;2084344;28;46473;-64
2022/11/29 02:52:17;;;;;;;;;5.00;4.75;;;;;11.98;67.15;100908.03;2086578;28;45042;-63
2022/11/29 02:53:29;;;;;;;;;5.75;5.75;;;;;11.97;67.17;100906.28;2086030;28;46983;-64
2022/11/29 02:54:44;;;;;;;;;2.75;2.75;;;;;11.95;66.80;100908.09;2084761;28;46457;-64
2022/11/29 02:56:07;;;;;;;;;6.75;5.50;;;;;11.94;67.03;100911.69;2086863;28;46411;-64
2022/11/29 02:57:22;;;;;;;;;7.25;7.25;;;;;11.94;66.93;100910.78;2085612;28;46730;-64
2022/11/29 02:58:32;;;;;;;;;7.50;5.00;;;;;11.93;66.84;100914.34;2074312;28;46384;-62
2022/11/29 02:59:38;;;;;;;;;4.00;4.00;;;;;11.92;66.92;100913.47;2074041;28;48253;-63
2022/11/29 03:00:50;;;;;;;;;6.00;6.00;;;;;11.91;67.06;100917.03;2084127;28;47128;-62
2022/11/29 03:02:17;;;;;;;;;1.00;1.00;;;;;11.91;66.92;100919.69;2079838;28;46686;-59
2022/11/29 03:03:48;;;;;;;;;5.00;4.75;;;;;11.92;66.93;100917.91;2085980;28;47589;-65
2022/11/29 03:05:06;;;;;;;;;6.00;4.75;;;;;11.92;66.98;100918.78;2082666;28;46488;-64
2022/11/29 03:06:49;;;;;;;;;6.00;5.25;;;;;11.93;67.07;100920.53;2081096;28;46938;-65
2022/11/29 03:08:07;;;;;;;;;4.50;4.50;;;;;11.93;67.10;100923.19;2062467;28;46772;-65
2022/11/29 03:09:37;;;;;;;;;5.75;5.00;;;;;11.94;67.10;100922.31;2059319;28;46568;-63
2022/11/29 03:10:41;;;;;;;;;4.75;4.75;;;;;11.97;67.01;100924.03;2068079;28;46324;-63
2022/11/29 03:11:41;;;;;;;;;6.75;6.00;;;;;11.95;67.00;100924.06;2068695;28;46744;-64
2022/11/29 03:12:48;;;;;;;;;8.00;8.00;;;;;11.95;67.05;100924.06;2068798;28;46465;-65
2022/11/29 03:14:11;;;;;;;;;7.00;7.00;;;;;11.95;67.14;100926.72;2062698;28;46685;-64
2022/11/29 03:15:18;;;;;;;;;6.50;6.50;;;;;11.96;66.97;100930.25;2068687;28;46330;-63
2022/11/29 03:16:42;;;;;;;;;6.00;6.00;;;;;11.97;66.93;100929.34;2068769;28;46835;-63
2022/11/29 03:18:06;;;;;;;;;7.50;7.50;;;;;11.96;67.08;100927.59;2069533;28;46799;-64
2022/11/29 03:19:22;;;;;;;;;8.25;7.00;;;;;11.95;67.14;100929.38;2067880;28;46543;-63
2022/11/29 03:20:36;;;;;;;;;7.50;6.75;;;;;11.97;67.19;100927.56;2069315;28;46407;-63
2022/11/29 03:21:44;;;;;;;;;7.50;7.50;;;;;11.99;67.01;100932.81;2068923;28;47596;-61
2022/11/29 03:23:13;;;;;;;;;8.25;7.75;;;;;11.98;67.11;100929.28;2068733;28;46444;-64
2022/11/29 03:24:27;;;;;;;;;6.00;6.00;;;;;11.98;66.82;100936.41;2064971;28;46495;-63
2022/11/29 03:25:38;;;;;;;;;9.00;8.75;;;;;11.97;66.83;100938.19;2070424;28;46556;-62
2022/11/29 03:26:44;;;;;;;;;5.25;5.25;;;;;11.97;67.01;100929.34;2069853;28;47105;-64
2022/11/29 03:28:01;;;;;;;;;8.25;8.25;;;;;11.96;66.88;100922.28;2073045;28;46606;-61
2022/11/29 03:29:09;;;;;;;;;9.50;8.00;;;;;11.96;67.06;100928.47;2068821;28;46955;-64
2022/11/29 03:30:15;;;;;;;;;8.00;7.50;;;;;11.95;66.85;100929.38;2069676;28;46286;-64
2022/11/29 03:31:30;;;;;;;;;8.00;6.75;;;;;11.96;66.83;100931.13;2061178;28;46497;-65
2022/11/29 03:32:49;;;;;;;;;7.00;7.00;;;;;11.94;67.07;100927.63;2063393;28;46362;-64
2022/11/29 03:33:55;;;;;;;;;8.75;8.75;;;;;11.96;66.80;100939.09;2072084;28;47653;-65
2022/11/29 03:35:03;;;;;;;;;8.25;8.25;;;;;11.96;66.84;100936.44;2068883;28;46148;-64
2022/11/29 03:36:13;;;;;;;;;8.00;8.00;;;;;11.96;66.93;100940.88;2070665;28;46050;-63
2022/11/29 03:37:18;;;;;;;;;8.00;8.00;;;;;11.95;66.96;100936.47;2070821;28;46819;-63
2022/11/29 03:38:34;;;;;;;;;8.00;7.00;;;;;11.95;66.85;100939.16;2070301;28;46403;-63
2022/11/29 03:40:06;;;;;;;;;9.00;7.75;;;;;11.96;66.86;100943.56;2067146;28;46532;-66
2022/11/29 03:41:26;;;;;;;;;8.75;7.25;;;;;11.95;66.76;100937.34;2070118;28;47510;-65
2022/11/29 03:42:42;;;;;;;;;9.00;8.00;;;;;11.96;66.98;100940.88;2066263;28;45221;-65
2022/11/29 03:44:10;;;;;;;;;9.00;8.25;;;;;11.96;66.84;100938.22;2071414;28;46557;-65
2022/11/29 03:45:35;;;;;;;;;8.00;8.00;;;;;11.94;66.91;100940.94;2083449;28;46695;-63
2022/11/29 03:47:02;;;;;;;;;7.50;7.50;;;;;11.92;66.84;100936.53;2092496;28;46650;-62
2022/11/29 03:48:10;;;;;;;;;8.00;7.00;;;;;11.90;66.91;100944.56;2091806;28;46726;-64
2022/11/29 03:49:24;;;;;;;;;7.50;7.50;;;;;11.88;67.03;100943.72;2096580;28;46614;-64
2022/11/29 03:50:35;;;;;;;;;8.25;8.25;;;;;11.86;66.96;100945.53;2091338;28;47128;-65
2022/11/29 03:51:59;;;;;;;;;9.00;8.25;;;;;11.85;66.72;100946.47;2097359;28;46472;-64
2022/11/29 03:53:19;;;;;;;;;7.25;7.00;;;;;11.84;67.02;100955.34;2095626;28;45448;-64
2022/11/29 03:54:29;;;;;;;;;8.50;7.75;;;;;11.82;66.77;100950.97;2095870;28;46480;-65
2022/11/29 03:55:49;;;;;;;;;8.25;7.75;;;;;11.79;67.02;100952.78;2094112;28;46401;-63
2022/11/29 03:56:50;;;;;;;;;8.50;7.50;;;;;11.78;67.10;100947.47;2093733;28;46676;-62
2022/11/29 03:57:56;;;;;;;;;6.33;6.33;;;;;11.77;67.14;100954.56;2097292;28;46314;-65
2022/11/29 03:59:09;;;;;;;;;9.00;9.00;;;;;11.77;67.34;100953.69;2094195;28;46239;-65
2022/11/29 04:00:11;;;;;;;;;6.75;6.75;;;;;11.76;67.16;100957.25;2096443;28;46898;-65
2022/11/29 04:01:41;;;;;;;;;9.20;7.80;;;;;11.75;67.36;100956.38;2095374;28;46831;-64
2022/11/29 04:02:59;;;;;;;;;7.00;7.00;;;;;11.78;67.45;100955.44;2072832;28;46457;-62
2022/11/29 04:04:27;;;;;;;;;9.50;6.75;;;;;11.77;67.34;100959.00;2069545;28;47075;-61
2022/11/29 04:05:36;;;;;;;;;8.00;7.75;;;;;11.79;67.36;100962.53;2073069;28;46783;-64
2022/11/29 04:06:46;;;;;;;;;9.25;8.75;;;;;11.79;67.26;100959.88;2072937;28;46722;-63
2022/11/29 04:07:52;;;;;;;;;9.50;7.75;;;;;11.78;67.29;100963.41;2075575;28;45306;-63
2022/11/29 04:09:04;;;;;;;;;7.50;7.50;;;;;11.79;67.34;100965.19;2076378;28;46521;-65
2022/11/29 04:10:32;;;;;;;;;8.25;8.00;;;;;11.78;67.32;100968.72;2071928;28;46251;-64
2022/11/29 04:11:59;;;;;;;;;6.25;6.00;;;;;11.75;67.42;100958.16;2072235;28;46586;-65
2022/11/29 04:13:05;;;;;;;;;8.25;8.25;;;;;11.76;67.30;100968.78;2073454;28;46761;-64
2022/11/29 04:14:33;;;;;;;;;8.25;7.50;;;;;11.76;67.36;100962.56;2066902;28;47021;-62
2022/11/29 04:15:42;;;;;;;;;7.00;5.50;;;;;11.78;67.45;100969.59;2078035;28;47067;-63
2022/11/29 04:17:10;;;;;;;;;8.00;8.00;;;;;11.79;67.39;100973.16;2073003;28;46695;-63
2022/11/29 04:18:31;;;;;;;;;7.50;7.00;;;;;11.79;67.44;100970.50;2070549;28;46926;-63
2022/11/29 04:19:38;;;;;;;;;7.25;7.25;;;;;11.77;67.37;100967.84;2073804;28;46857;-63
2022/11/29 04:21:04;;;;;;;;;9.20;7.80;;;;;11.78;67.15;100974.03;2075880;28;46383;-63
2022/11/29 04:22:16;;;;;;;;;7.50;7.50;;;;;11.78;67.54;100969.59;2069065;28;46412;-64
2022/11/29 04:23:47;;;;;;;;;7.50;6.75;;;;;11.78;67.44;100982.91;2077252;28;46621;-64
2022/11/29 04:25:20;;;;;;;;;7.25;5.50;;;;;11.79;67.48;100986.47;2074555;28;46327;-64
2022/11/29 04:26:53;;;;;;;;;8.50;8.00;;;;;11.81;67.28;100981.09;2074659;28;46706;-66
2022/11/29 04:28:18;;;;;;;;;6.25;6.25;;;;;11.82;67.31;100985.56;2074558;28;46673;-63
2022/11/29 04:29:46;;;;;;;;;9.50;8.75;;;;;11.82;67.20;100986.41;2074413;28;46504;-63
2022/11/29 04:31:11;;;;;;;;;7.25;7.25;;;;;11.82;67.35;100986.41;2071882;28;46880;-63
2022/11/29 04:32:32;;;;;;;;;8.00;8.00;;;;;11.82;67.14;100988.22;2070485;28;46774;-62
2022/11/29 04:33:57;;;;;;;;;9.50;8.00;;;;;11.82;67.27;100986.41;2072669;28;46430;-63
2022/11/29 04:35:21;;;;;;;;;8.25;7.00;;;;;11.84;67.44;100992.56;2075475;28;46531;-63
2022/11/29 04:36:56;;;;;;;;;7.40;7.40;;;;;11.86;67.38;101000.50;2071164;28;46963;-65
2022/11/29 04:38:02;;;;;;;;;6.25;6.25;;;;;11.87;67.36;100999.59;2070933;28;46704;-63
2022/11/29 04:39:27;;;;;;;;;9.25;6.50;;;;;11.87;67.32;100999.59;2075623;28;46635;-63
2022/11/29 04:40:35;;;;;;;;;7.25;7.25;;;;;11.88;67.28;101001.34;2082064;28;46477;-63
2022/11/29 04:42:12;;;;;;;;;9.60;9.40;;;;;11.88;67.22;100998.69;2096874;28;46252;-64
2022/11/29 04:43:19;;;;;;;;;11.25;9.25;;;;;11.88;67.21;100996.03;2095252;28;46626;-63
2022/11/29 04:44:44;;;;;;;;;6.40;6.20;;;;;11.88;67.28;100996.91;2095226;28;46985;-63
2022/11/29 04:46:10;;;;;;;;;11.80;11.00;;;;;11.89;67.04;101000.44;2096881;28;46570;-63
2022/11/29 04:47:47;;;;;;;;;7.80;7.60;;;;;11.88;67.01;101002.22;2095768;28;46342;-64
2022/11/29 04:48:54;;;;;;;;;8.50;8.25;;;;;11.88;67.15;101010.19;2077464;28;46792;-67
2022/11/29 04:50:19;;;;;;;;;8.50;8.00;;;;;11.88;67.11;101004.00;2073877;28;46948;-63
2022/11/29 04:51:57;;;;;;;;;8.00;7.75;;;;;11.88;67.11;101009.31;2078251;28;46686;-64
2022/11/29 04:53:19;;;;;;;;;10.40;10.40;;;;;11.88;67.05;101004.00;2078109;28;48384;-64
2022/11/29 04:54:46;;;;;;;;;7.20;7.20;;;;;11.88;67.23;101004.88;2078023;28;47037;-62
2022/11/29 04:56:14;;;;;;;;;9.75;8.25;;;;;11.89;66.95;101000.44;2079302;28;47429;-64
2022/11/29 04:57:26;;;;;;;;;9.00;9.00;;;;;11.90;67.07;101011.03;2078221;28;46084;-63
2022/11/29 04:58:42;;;;;;;;;8.50;8.00;;;;;11.89;67.10;101005.75;2078076;28;46858;-64
2022/11/29 05:00:08;;;;;;;;;8.20;8.20;;;;;11.89;67.15;101009.28;2075687;28;46812;-64
2022/11/29 05:01:45;;;;;;;;;20.40;19.60;;;;;11.89;67.20;101005.75;2077578;28;46839;-63
2022/11/29 05:03:10;;;;;;;;;12.40;12.20;;;;;11.88;67.00;101014.66;2051314;28;46321;-63
2022/11/29 05:04:19;;;;;;;;;13.00;12.20;;;;;11.88;67.25;101012.00;2053470;28;46431;-64
2022/11/29 05:05:33;;;;;;;;;12.75;12.75;;;;;11.88;67.01;101012.84;2044688;28;46856;-64
2022/11/29 05:06:44;;;;;;;;;9.60;9.60;;;;;11.88;67.09;101012.00;2046469;28;46845;-64
2022/11/29 05:08:05;;;;;;;;;13.60;13.40;;;;;11.88;67.14;101012.84;2055544;28;46367;-65
2022/11/29 05:09:34;;;;;;;;;9.20;8.80;;;;;11.88;67.19;101015.53;2052925;28;46974;-63
2022/11/29 05:11:05;;;;;;;;;10.00;10.00;;;;;11.88;67.11;101015.53;2051675;28;47154;-63
2022/11/29 05:12:14;;;;;;;;;12.60;11.60;;;;;11.89;67.07;101027.03;2053328;28;46613;-64
2022/11/29 05:13:28;;;;;;;;;9.50;9.00;;;;;11.87;66.84;101018.22;2052632;28;47073;-63
2022/11/29 05:14:49;;;;;;;;;6.00;6.00;;;;;11.87;67.18;101021.75;2052203;28;46363;-65
2022/11/29 05:16:14;;;;;;;;;11.25;10.75;;;;;11.87;67.18;101029.72;2054425;28;47228;-64
2022/11/29 05:17:36;;;;;;;;;10.20;9.20;;;;;11.87;67.06;101029.72;2053192;28;46279;-63
2022/11/29 05:19:02;;;;;;;;;8.00;7.00;;;;;11.87;67.04;101031.50;2050203;28;46564;-64
2022/11/29 05:20:43;;;;;;;;;9.20;9.20;;;;;11.87;67.08;101029.72;2052803;28;46698;-63
2022/11/29 05:22:02;;;;;;;;;11.25;10.00;;;;;11.86;67.07;101035.97;2022662;29;45691;-63
2022/11/29 05:23:21;;;;;;;;;11.00;9.75;;;;;11.86;67.18;101037.75;2024024;29;46696;-63
2022/11/29 05:24:48;;;;;;;;;10.75;9.75;;;;;11.85;67.09;101034.22;2018667;29;46537;-63
2022/11/29 05:25:59;;;;;;;;;11.50;7.75;;;;;11.86;67.04;101041.28;2024637;28;46666;-64
2022/11/29 05:27:22;;;;;;;;;11.40;10.80;;;;;11.86;67.05;101043.94;2039587;28;46800;-63
2022/11/29 05:28:37;;;;;;;;;10.00;9.75;;;;;11.86;67.02;101035.97;2033666;28;46888;-64
2022/11/29 05:29:55;;;;;;;;;8.60;8.60;;;;;11.87;66.95;101037.69;2038952;28;46599;-64
2022/11/29 05:31:17;;;;;;;;;8.00;7.00;;;;;11.88;67.11;101035.91;2038863;28;47526;-64
2022/11/29 05:32:56;;;;;;;;;10.80;10.80;;;;;11.87;66.91;101036.84;2038249;28;46570;-64